Baltimore, Maryland
Traffic Map
Current Weather Conditions
Baltimore, Maryland
Overcast
Overcast
63°
Feels Like: 63°
Wind Chill: 63° Ceiling: 2700
Heat Index: 63° Visibility: 10mi
Dew Point: 59° Wind: 0mph
Humidity: 88% Direction: ° ()
Pressure: 30.01in Gusts: 0mph
Raw Report DataKBWI 160716Z 00000KT 10SM BKN027 OVC035 17/15 A3001 RMK AO2
Traffic Incident Summary
Active as of:
Severity:
Category:
InformationThere was an issue retrieving the traffic information for this location. Please try a different location or try again shortly.
Advertisements
Track Severe Weather on mobile